createdAt,value
2016-04-30T00:00:28.710Z,1009.24
2016-04-30T00:01:28.713Z,1009.27
2016-04-30T00:02:28.715Z,1009.25
2016-04-30T00:03:28.717Z,1009.28
2016-04-30T00:04:28.736Z,1009.29
2016-04-30T00:05:28.738Z,1009.3
2016-04-30T00:06:28.741Z,1009.31
2016-04-30T00:07:28.744Z,1009.33
2016-04-30T00:08:28.746Z,1009.34
2016-04-30T00:09:28.749Z,1009.33
2016-04-30T00:10:28.768Z,1009.33
2016-04-30T00:11:28.770Z,1009.34
2016-04-30T00:12:28.773Z,1009.33
2016-04-30T00:13:28.776Z,1009.32
2016-04-30T00:14:28.795Z,1009.28
2016-04-30T00:15:28.797Z,1009.28
2016-04-30T00:16:28.800Z,1009.32
2016-04-30T00:17:28.802Z,1009.32
2016-04-30T00:18:28.805Z,1009.35
2016-04-30T00:19:28.823Z,1009.3
2016-04-30T00:20:28.826Z,1009.35
2016-04-30T00:21:28.828Z,1009.28
2016-04-30T00:22:28.831Z,1009.27
2016-04-30T00:23:28.850Z,1009.26
2016-04-30T00:24:28.852Z,1009.26
2016-04-30T00:25:28.856Z,1009.33
2016-04-30T00:26:28.858Z,1009.28
2016-04-30T00:27:28.861Z,1009.27
2016-04-30T00:28:28.863Z,1009.29
2016-04-30T00:29:28.881Z,1009.23
2016-04-30T00:30:28.883Z,1009.27
2016-04-30T00:31:28.887Z,1009.23
2016-04-30T00:32:28.889Z,1009.25
2016-04-30T00:33:28.924Z,1009.24
2016-04-30T00:34:28.910Z,1009.25
2016-04-30T00:35:28.913Z,1009.25
2016-04-30T00:36:28.916Z,1009.28
2016-04-30T00:37:28.919Z,1009.26
2016-04-30T00:38:28.937Z,1009.26
2016-04-30T00:39:28.939Z,1009.26
2016-04-30T00:40:28.942Z,1009.23
2016-04-30T00:41:28.945Z,1009.22
2016-04-30T00:42:28.948Z,1009.2
2016-04-30T00:43:28.951Z,1009.18
2016-04-30T00:44:28.968Z,1009.17
2016-04-30T00:45:28.971Z,1009.2
2016-04-30T00:46:28.974Z,1009.17
2016-04-30T00:47:28.976Z,1009.22
2016-04-30T00:48:28.995Z,1009.21
2016-04-30T00:49:28.998Z,1009.26
2016-04-30T00:50:29.000Z,1009.26
2016-04-30T00:51:29.003Z,1009.3
2016-04-30T00:52:29.006Z,1009.29
2016-04-30T00:53:29.025Z,1009.32
2016-04-30T00:54:29.027Z,1009.29
2016-04-30T00:55:29.030Z,1009.38
2016-04-30T00:56:29.032Z,1009.34
2016-04-30T00:57:29.035Z,1009.35
2016-04-30T00:58:29.038Z,1009.34
2016-04-30T00:59:29.056Z,1009.38
2016-04-30T01:00:29.058Z,1009.36
2016-04-30T01:01:29.061Z,1009.4
2016-04-30T01:02:29.063Z,1009.37
2016-04-30T01:03:29.083Z,1009.39
2016-04-30T01:04:29.085Z,1009.41
2016-04-30T01:05:29.087Z,1009.42
2016-04-30T01:06:29.091Z,1009.43
2016-04-30T01:07:29.093Z,1009.43
2016-04-30T01:08:29.111Z,1009.44
2016-04-30T01:09:29.113Z,1009.43
2016-04-30T01:10:29.116Z,1009.46
2016-04-30T01:11:29.135Z,1009.42
2016-04-30T01:12:29.138Z,1009.44
2016-04-30T01:13:29.140Z,1009.47
2016-04-30T01:14:29.143Z,1009.47
2016-04-30T01:15:29.146Z,1009.5
2016-04-30T01:16:29.148Z,1009.49
2016-04-30T01:17:29.151Z,1009.5
2016-04-30T01:18:29.217Z,1009.54
2016-04-30T01:19:29.172Z,1009.53
2016-04-30T01:20:29.175Z,1009.54
2016-04-30T01:21:29.178Z,1009.59
2016-04-30T01:22:29.195Z,1009.58
2016-04-30T01:23:29.198Z,1009.56
2016-04-30T01:24:29.201Z,1009.57
2016-04-30T01:25:29.203Z,1009.57
2016-04-30T01:26:29.222Z,1009.58
2016-04-30T01:27:29.209Z,1009.59
2016-04-30T01:28:29.211Z,1009.62
2016-04-30T01:29:29.230Z,1009.61
2016-04-30T01:30:29.232Z,1009.6
2016-04-30T01:31:29.235Z,1009.65
2016-04-30T01:32:29.239Z,1009.6
2016-04-30T01:33:29.257Z,1009.63
2016-04-30T01:34:29.260Z,1009.61
2016-04-30T01:35:29.262Z,1009.63
2016-04-30T01:36:29.265Z,1009.63
2016-04-30T01:37:29.268Z,1009.63
2016-04-30T01:38:29.285Z,1009.68
2016-04-30T01:39:29.288Z,1009.61
2016-04-30T01:40:29.291Z,1009.63
2016-04-30T01:41:29.293Z,1009.63
2016-04-30T01:42:29.296Z,1009.66
2016-04-30T01:43:29.315Z,1009.64
2016-04-30T01:44:29.318Z,1009.65
2016-04-30T01:45:29.321Z,1009.65
2016-04-30T01:46:29.323Z,1009.62
2016-04-30T01:47:29.325Z,1009.65
2016-04-30T01:48:29.343Z,1009.65
2016-04-30T01:49:29.346Z,1009.68
2016-04-30T01:50:29.348Z,1009.66
2016-04-30T01:51:29.352Z,1009.72
2016-04-30T01:52:29.354Z,1009.71
2016-04-30T01:53:29.373Z,1009.73
2016-04-30T01:54:29.375Z,1009.71
2016-04-30T01:55:29.378Z,1009.72
2016-04-30T01:56:29.381Z,1009.74
2016-04-30T01:57:29.399Z,1009.76
2016-04-30T01:58:29.402Z,1009.8
2016-04-30T01:59:29.405Z,1009.75
2016-04-30T02:00:29.408Z,1009.78
2016-04-30T02:01:29.425Z,1009.79
2016-04-30T02:02:29.413Z,1009.79
2016-04-30T02:03:29.431Z,1009.76
2016-04-30T02:04:29.434Z,1009.77
2016-04-30T02:05:29.436Z,1009.74
2016-04-30T02:06:29.439Z,1009.75
2016-04-30T02:07:29.441Z,1009.78
2016-04-30T02:08:29.460Z,1009.74
2016-04-30T02:09:29.463Z,1009.72
2016-04-30T02:10:29.465Z,1009.76
2016-04-30T02:11:29.468Z,1009.74
2016-04-30T02:12:29.471Z,1009.74
2016-04-30T02:13:29.490Z,1009.77
2016-04-30T02:14:29.492Z,1009.78
2016-04-30T02:15:29.494Z,1009.79
2016-04-30T02:16:29.497Z,1009.81
2016-04-30T02:17:29.516Z,1009.8
2016-04-30T02:18:29.565Z,1009.83
2016-04-30T02:19:29.521Z,1009.8
2016-04-30T02:20:29.523Z,1009.8
2016-04-30T02:21:29.526Z,1009.79
2016-04-30T02:22:29.545Z,1009.79
2016-04-30T02:23:29.548Z,1009.78
2016-04-30T02:24:29.550Z,1009.79
2016-04-30T02:25:29.553Z,1009.8
2016-04-30T02:26:29.555Z,1009.79
2016-04-30T02:27:29.573Z,1009.82
2016-04-30T02:28:29.576Z,1009.82
2016-04-30T02:29:29.578Z,1009.82
2016-04-30T02:30:29.598Z,1009.83
2016-04-30T02:31:29.584Z,1009.83
2016-04-30T02:32:29.603Z,1009.89
2016-04-30T02:33:29.605Z,1009.85
2016-04-30T02:34:29.608Z,1009.88
2016-04-30T02:35:29.610Z,1009.9
2016-04-30T02:36:29.613Z,1009.93
2016-04-30T02:37:29.616Z,1009.87
2016-04-30T02:38:29.635Z,1009.92
2016-04-30T02:39:29.637Z,1009.9
2016-04-30T02:40:29.640Z,1009.9
2016-04-30T02:41:29.643Z,1009.91
2016-04-30T02:42:29.645Z,1009.91
2016-04-30T02:43:29.663Z,1009.92
2016-04-30T02:44:29.666Z,1009.92
2016-04-30T02:45:29.669Z,1009.97
2016-04-30T02:46:29.671Z,1009.93
2016-04-30T02:47:29.674Z,1009.91
2016-04-30T02:48:29.692Z,1009.91
2016-04-30T02:49:29.696Z,1009.95
2016-04-30T02:50:29.698Z,1009.96
2016-04-30T02:51:29.717Z,1009.91
2016-04-30T02:52:29.719Z,1009.92
2016-04-30T02:53:29.722Z,1009.94
2016-04-30T02:54:29.724Z,1009.93
2016-04-30T02:55:29.727Z,1009.93
2016-04-30T02:56:29.731Z,1009.95
2016-04-30T02:57:29.733Z,1009.94
2016-04-30T02:58:29.751Z,1009.9
2016-04-30T02:59:29.753Z,1009.91
2016-04-30T03:00:29.755Z,1009.92
2016-04-30T03:01:29.758Z,1009.89
2016-04-30T03:02:29.761Z,1009.9
2016-04-30T03:03:29.780Z,1009.86
2016-04-30T03:04:30.173Z,1009.89
2016-04-30T03:05:29.785Z,1009.88
2016-04-30T03:06:29.788Z,1009.89
2016-04-30T03:07:29.806Z,1009.88
2016-04-30T03:08:29.809Z,1009.86
2016-04-30T03:09:29.811Z,1009.9
2016-04-30T03:10:29.814Z,1009.91
2016-04-30T03:11:29.816Z,1009.92
2016-04-30T03:12:29.835Z,1009.93
2016-04-30T03:13:29.838Z,1009.92
2016-04-30T03:14:29.840Z,1009.87
2016-04-30T03:15:29.844Z,1009.88
2016-04-30T03:16:29.846Z,1009.88
2016-04-30T03:17:29.849Z,1009.88
2016-04-30T03:18:29.867Z,1009.84
2016-04-30T03:19:29.870Z,1009.84
2016-04-30T03:20:29.872Z,1009.85
2016-04-30T03:21:29.875Z,1009.88
2016-04-30T03:22:29.878Z,1009.88
2016-04-30T03:23:29.896Z,1009.86
2016-04-30T03:24:29.898Z,1009.87
2016-04-30T03:25:29.918Z,1009.91
2016-04-30T03:26:29.904Z,1009.9
2016-04-30T03:27:29.906Z,1009.9
2016-04-30T03:28:29.925Z,1009.91
2016-04-30T03:29:29.928Z,1009.92
2016-04-30T03:30:29.931Z,1009.92
2016-04-30T03:31:29.933Z,1009.94
2016-04-30T03:32:29.985Z,1009.89
2016-04-30T03:33:30.056Z,1009.92
2016-04-30T03:34:30.113Z,1009.94
2016-04-30T03:35:30.168Z,1009.95
2016-04-30T03:36:30.224Z,1009.95
2016-04-30T03:37:30.263Z,1009.93
2016-04-30T03:38:30.284Z,1009.95
2016-04-30T03:39:30.306Z,1009.97
2016-04-30T03:40:30.327Z,1010.01
2016-04-30T03:41:30.349Z,1009.98
2016-04-30T03:42:30.375Z,1010.01
2016-04-30T03:43:30.369Z,1009.99
2016-04-30T03:44:30.394Z,1010.01
2016-04-30T03:45:30.404Z,1010.04
2016-04-30T03:46:30.414Z,1010.08
2016-04-30T03:47:30.419Z,1010.07
2016-04-30T03:48:30.439Z,1010.09
2016-04-30T03:49:30.445Z,1010.06
2016-04-30T03:50:30.450Z,1010.12
2016-04-30T03:51:30.456Z,1010.13
2016-04-30T03:52:30.476Z,1010.12
2016-04-30T03:53:30.479Z,1010.15
2016-04-30T03:54:30.483Z,1010.15
2016-04-30T03:55:30.486Z,1010.14
2016-04-30T03:56:30.489Z,1010.17
2016-04-30T03:57:30.508Z,1010.18
2016-04-30T03:58:30.512Z,1010.19
2016-04-30T03:59:30.514Z,1010.19
2016-04-30T04:00:30.518Z,1010.22
2016-04-30T04:01:30.521Z,1010.25
2016-04-30T04:02:30.524Z,1010.25
2016-04-30T04:03:30.527Z,1010.25
2016-04-30T04:04:31.154Z,1010.24
2016-04-30T04:05:30.546Z,1010.24
2016-04-30T04:06:30.549Z,1010.26
2016-04-30T04:07:30.551Z,1010.26
2016-04-30T04:08:30.571Z,1010.25
2016-04-30T04:09:30.574Z,1010.2
2016-04-30T04:10:30.576Z,1010.27
2016-04-30T04:11:30.579Z,1010.29
2016-04-30T04:12:30.581Z,1010.26
2016-04-30T04:13:30.584Z,1010.32
2016-04-30T04:14:30.603Z,1010.27
2016-04-30T04:15:30.606Z,1010.26
2016-04-30T04:16:30.608Z,1010.29
2016-04-30T04:17:30.611Z,1010.32
2016-04-30T04:18:30.613Z,1010.33
2016-04-30T04:19:31.694Z,1010.34
2016-04-30T04:20:30.634Z,1010.33
2016-04-30T04:21:30.637Z,1010.32
2016-04-30T04:22:30.655Z,1010.38
2016-04-30T04:23:30.658Z,1010.37
2016-04-30T04:24:30.660Z,1010.37
2016-04-30T04:25:30.663Z,1010.41
2016-04-30T04:26:30.666Z,1010.38
2016-04-30T04:27:30.669Z,1010.4
2016-04-30T04:28:30.672Z,1010.43
2016-04-30T04:29:30.689Z,1010.44
2016-04-30T04:30:30.692Z,1010.45
2016-04-30T04:31:30.694Z,1010.46
2016-04-30T04:32:30.697Z,1010.49
2016-04-30T04:33:30.699Z,1010.44
2016-04-30T04:34:30.719Z,1010.5
2016-04-30T04:35:30.721Z,1010.49
2016-04-30T04:36:30.724Z,1010.49
2016-04-30T04:37:30.727Z,1010.49
2016-04-30T04:38:30.745Z,1010.48
2016-04-30T04:39:30.748Z,1010.51
2016-04-30T04:40:30.751Z,1010.53
2016-04-30T04:41:30.753Z,1010.57
2016-04-30T04:42:30.756Z,1010.56
2016-04-30T04:43:30.774Z,1010.53
2016-04-30T04:44:30.776Z,1010.56
2016-04-30T04:45:30.779Z,1010.55
2016-04-30T04:46:30.782Z,1010.52
2016-04-30T04:47:30.801Z,1010.56
2016-04-30T04:48:30.803Z,1010.57
2016-04-30T04:49:30.806Z,1010.58
2016-04-30T04:50:30.808Z,1010.59
2016-04-30T04:51:30.811Z,1010.6
2016-04-30T04:52:30.813Z,1010.62
2016-04-30T04:53:30.817Z,1010.59
2016-04-30T04:54:30.835Z,1010.64
2016-04-30T04:55:30.838Z,1010.63
2016-04-30T04:56:30.840Z,1010.67
2016-04-30T04:57:30.843Z,1010.65
2016-04-30T04:58:30.861Z,1010.69
2016-04-30T04:59:30.864Z,1010.66
2016-04-30T05:00:30.867Z,1010.68
2016-04-30T05:02:30.872Z,1010.66
2016-04-30T05:03:30.874Z,1010.7
2016-04-30T05:04:30.893Z,1010.71
2016-04-30T05:05:30.896Z,1010.74
2016-04-30T05:06:30.899Z,1010.75
2016-04-30T05:07:30.901Z,1010.76
2016-04-30T05:08:30.919Z,1010.75
2016-04-30T05:09:30.921Z,1010.75
2016-04-30T05:10:30.924Z,1010.79
2016-04-30T05:11:30.927Z,1010.77
2016-04-30T05:12:30.930Z,1010.8
2016-04-30T05:13:30.932Z,1010.84
2016-04-30T05:14:30.951Z,1010.82
2016-04-30T05:15:30.954Z,1010.87
2016-04-30T05:16:30.956Z,1010.86
2016-04-30T05:17:30.959Z,1010.89
2016-04-30T05:18:30.962Z,1010.88
2016-04-30T05:19:31.918Z,1010.93
2016-04-30T05:20:30.983Z,1010.91
2016-04-30T05:21:30.986Z,1010.91
2016-04-30T05:22:30.988Z,1010.91
2016-04-30T05:23:30.991Z,1010.92
2016-04-30T05:24:31.009Z,1010.93
2016-04-30T05:25:31.012Z,1010.94
2016-04-30T05:26:31.014Z,1010.99
2016-04-30T05:27:31.017Z,1010.99
2016-04-30T05:28:31.036Z,1010.98
2016-04-30T05:29:31.038Z,1011.03
2016-04-30T05:30:31.041Z,1011.05
2016-04-30T05:31:31.044Z,1011.05
2016-04-30T05:32:31.062Z,1011.08
2016-04-30T05:33:31.065Z,1011.11
2016-04-30T05:34:31.083Z,1011.12
2016-04-30T05:35:31.070Z,1011.12
2016-04-30T05:36:31.074Z,1011.13
2016-04-30T05:37:31.076Z,1011.15
2016-04-30T05:38:31.094Z,1011.16
2016-04-30T05:39:31.096Z,1011.17
2016-04-30T05:40:31.099Z,1011.2
2016-04-30T05:41:31.117Z,1011.19
2016-04-30T05:42:31.120Z,1011.21
2016-04-30T05:43:31.123Z,1011.22
2016-04-30T05:44:31.126Z,1011.21
2016-04-30T05:45:31.129Z,1011.23
2016-04-30T05:46:31.131Z,1011.24
2016-04-30T05:47:31.131Z,1011.22
2016-04-30T05:48:31.149Z,1011.21
2016-04-30T05:49:31.152Z,1011.23
2016-04-30T05:50:31.154Z,1011.27
2016-04-30T05:51:31.157Z,1011.25
2016-04-30T05:52:31.159Z,1011.25
2016-04-30T05:53:31.178Z,1011.27
2016-04-30T05:54:31.181Z,1011.29
2016-04-30T05:55:31.183Z,1011.26
2016-04-30T05:56:31.186Z,1011.25
2016-04-30T05:57:31.205Z,1011.31
2016-04-30T05:58:31.208Z,1011.31
2016-04-30T05:59:31.211Z,1011.33
2016-04-30T06:00:31.214Z,1011.3
2016-04-30T06:01:31.215Z,1011.28
2016-04-30T06:02:31.233Z,1011.33
2016-04-30T06:03:31.237Z,1011.31
2016-04-30T06:04:31.239Z,1011.31
2016-04-30T06:05:31.242Z,1011.31
2016-04-30T06:06:31.244Z,1011.34
2016-04-30T06:07:31.247Z,1011.37
2016-04-30T06:08:31.266Z,1011.37
2016-04-30T06:09:31.268Z,1011.39
2016-04-30T06:10:31.271Z,1011.4
2016-04-30T06:11:31.274Z,1011.4
2016-04-30T06:12:31.293Z,1011.41
2016-04-30T06:13:31.295Z,1011.4
2016-04-30T06:14:31.298Z,1011.45
2016-04-30T06:15:31.300Z,1011.44
2016-04-30T06:16:31.318Z,1011.46
2016-04-30T06:17:31.321Z,1011.46
2016-04-30T06:18:31.323Z,1011.49
2016-04-30T06:19:31.342Z,1011.49
2016-04-30T06:20:31.329Z,1011.49
2016-04-30T06:21:31.332Z,1011.49
2016-04-30T06:22:31.350Z,1011.44
2016-04-30T06:23:31.347Z,1011.48
2016-04-30T06:24:31.350Z,1011.47
2016-04-30T06:25:31.368Z,1011.45
2016-04-30T06:26:31.371Z,1011.43
2016-04-30T06:27:31.374Z,1011.42
2016-04-30T06:28:31.377Z,1011.43
2016-04-30T06:29:31.379Z,1011.46
2016-04-30T06:30:31.397Z,1011.43
2016-04-30T06:31:31.400Z,1011.43
2016-04-30T06:32:31.403Z,1011.4
2016-04-30T06:33:31.405Z,1011.41
2016-04-30T06:34:31.424Z,1011.37
2016-04-30T06:35:31.426Z,1011.4
2016-04-30T06:36:31.429Z,1011.4
2016-04-30T06:37:31.432Z,1011.45
2016-04-30T06:38:31.434Z,1011.45
2016-04-30T06:39:31.437Z,1011.48
2016-04-30T06:40:31.455Z,1011.49
2016-04-30T06:41:31.458Z,1011.51
2016-04-30T06:42:31.460Z,1011.48
2016-04-30T06:43:31.463Z,1011.48
2016-04-30T06:44:31.465Z,1011.49
2016-04-30T06:45:31.484Z,1011.51
2016-04-30T06:46:31.487Z,1011.49
2016-04-30T06:47:31.489Z,1011.49
2016-04-30T06:48:31.492Z,1011.51
2016-04-30T06:49:31.495Z,1011.52
2016-04-30T06:50:31.514Z,1011.52
2016-04-30T06:51:31.517Z,1011.54
2016-04-30T06:52:31.519Z,1011.53
2016-04-30T06:53:31.521Z,1011.53
2016-04-30T06:54:31.540Z,1011.56
2016-04-30T06:55:31.543Z,1011.54
2016-04-30T06:56:31.545Z,1011.57
2016-04-30T06:57:31.547Z,1011.58
2016-04-30T06:58:31.550Z,1011.54
2016-04-30T06:59:31.569Z,1011.58
2016-04-30T07:00:31.572Z,1011.6
2016-04-30T07:01:31.575Z,1011.57
2016-04-30T07:02:31.577Z,1011.57
2016-04-30T07:03:31.580Z,1011.59
2016-04-30T07:04:31.599Z,1011.59
2016-04-30T07:05:31.601Z,1011.6
2016-04-30T07:06:31.603Z,1011.61
2016-04-30T07:07:31.607Z,1011.59
2016-04-30T07:08:31.609Z,1011.59
2016-04-30T07:09:31.612Z,1011.66
2016-04-30T07:10:31.630Z,1011.65
2016-04-30T07:11:31.632Z,1011.64
2016-04-30T07:12:31.635Z,1011.64
2016-04-30T07:13:31.638Z,1011.62
2016-04-30T07:14:31.656Z,1011.65
2016-04-30T07:15:31.659Z,1011.61
2016-04-30T07:16:31.662Z,1011.63
2016-04-30T07:17:31.665Z,1011.67
2016-04-30T07:18:31.667Z,1011.66
2016-04-30T07:19:32.232Z,1011.7
2016-04-30T07:20:31.687Z,1011.7
2016-04-30T07:21:31.690Z,1011.73
2016-04-30T07:22:31.693Z,1011.79
2016-04-30T07:23:31.696Z,1011.8
2016-04-30T07:24:31.714Z,1011.77
2016-04-30T07:25:31.717Z,1011.79
2016-04-30T07:26:31.720Z,1011.75
2016-04-30T07:27:31.722Z,1011.8
2016-04-30T07:28:31.725Z,1011.77
2016-04-30T07:29:31.728Z,1011.76
2016-04-30T07:30:31.747Z,1011.79
2016-04-30T07:31:31.749Z,1011.77
2016-04-30T07:32:31.752Z,1011.8
2016-04-30T07:33:31.754Z,1011.82
2016-04-30T07:34:32.179Z,1011.79
2016-04-30T07:35:31.775Z,1011.8
2016-04-30T07:36:31.778Z,1011.8
2016-04-30T07:37:31.780Z,1011.86
2016-04-30T07:38:31.783Z,1011.82
2016-04-30T07:39:31.802Z,1011.84
2016-04-30T07:40:31.804Z,1011.85
2016-04-30T07:41:31.807Z,1011.83
2016-04-30T07:42:31.810Z,1011.83
2016-04-30T07:43:31.812Z,1011.88
2016-04-30T07:44:31.815Z,1011.87
2016-04-30T07:45:31.834Z,1011.87
2016-04-30T07:46:31.836Z,1011.88
2016-04-30T07:47:31.839Z,1011.92
2016-04-30T07:48:31.842Z,1011.92
2016-04-30T07:49:31.938Z,1011.92
2016-04-30T07:50:31.862Z,1011.92
2016-04-30T07:51:31.865Z,1011.94
2016-04-30T07:52:31.867Z,1011.89
2016-04-30T07:53:31.870Z,1011.91
2016-04-30T07:54:31.889Z,1011.9
2016-04-30T07:55:31.892Z,1011.9
2016-04-30T07:56:31.894Z,1011.94
2016-04-30T07:57:31.897Z,1011.96
2016-04-30T07:58:31.915Z,1011.89
2016-04-30T07:59:31.917Z,1011.93
2016-04-30T08:00:31.920Z,1011.89
2016-04-30T08:02:31.941Z,1011.94
2016-04-30T08:03:31.944Z,1011.92
2016-04-30T08:04:31.947Z,1011.93
2016-04-30T08:05:31.965Z,1011.93
2016-04-30T08:06:31.952Z,1011.93
2016-04-30T08:07:31.970Z,1011.94
2016-04-30T08:08:31.974Z,1011.93
2016-04-30T08:09:31.977Z,1011.93
2016-04-30T08:10:31.979Z,1011.92
2016-04-30T08:11:31.996Z,1011.92
2016-04-30T08:12:31.999Z,1011.92
2016-04-30T08:13:32.002Z,1011.96
2016-04-30T08:14:32.004Z,1011.96
2016-04-30T08:15:32.023Z,1011.96
2016-04-30T08:16:32.026Z,1011.93
2016-04-30T08:17:32.029Z,1011.98
2016-04-30T08:18:32.047Z,1011.94
2016-04-30T08:19:32.050Z,1011.97
2016-04-30T08:20:32.053Z,1011.99
2016-04-30T08:21:32.055Z,1012.02
2016-04-30T08:22:32.058Z,1012.02
2016-04-30T08:23:32.076Z,1012.03
2016-04-30T08:24:32.079Z,1012.01
2016-04-30T08:25:32.082Z,1012.05
2016-04-30T08:26:32.100Z,1012.05
2016-04-30T08:27:32.102Z,1012.08
2016-04-30T08:28:32.106Z,1012.07
2016-04-30T08:29:32.108Z,1012.11
2016-04-30T08:30:32.125Z,1012.09
2016-04-30T08:31:33.036Z,1012.09
2016-04-30T08:32:32.131Z,1012.12
2016-04-30T08:33:32.150Z,1012.07
2016-04-30T08:34:32.152Z,1012.09
2016-04-30T08:35:32.155Z,1012.16
2016-04-30T08:36:32.157Z,1012.12
2016-04-30T08:37:32.161Z,1012.11
2016-04-30T08:38:32.179Z,1012.1
2016-04-30T08:39:32.181Z,1012.11
2016-04-30T08:40:32.184Z,1012.11
2016-04-30T08:41:32.187Z,1012.13
2016-04-30T08:42:32.205Z,1012.17
2016-04-30T08:43:32.207Z,1012.17
2016-04-30T08:44:32.210Z,1012.21
2016-04-30T08:45:32.229Z,1012.11
2016-04-30T08:46:32.232Z,1012.12
2016-04-30T08:47:32.234Z,1012.14
2016-04-30T08:48:32.237Z,1012.18
2016-04-30T08:49:32.256Z,1012.19
2016-04-30T08:50:32.259Z,1012.17
2016-04-30T08:51:32.261Z,1012.18
2016-04-30T08:52:32.264Z,1012.22
2016-04-30T08:53:32.282Z,1012.22
2016-04-30T08:54:32.284Z,1012.22
2016-04-30T08:55:32.286Z,1012.24
2016-04-30T08:56:32.289Z,1012.19
2016-04-30T08:57:32.308Z,1012.18
2016-04-30T08:58:32.311Z,1012.17
2016-04-30T08:59:32.313Z,1012.18
2016-04-30T09:00:32.331Z,1012.15
2016-04-30T09:01:32.334Z,1012.18
2016-04-30T09:02:32.337Z,1012.17
2016-04-30T09:03:32.339Z,1012.2
2016-04-30T09:04:32.483Z,1012.19
2016-04-30T09:05:32.361Z,1012.17
2016-04-30T09:06:32.364Z,1012.2
2016-04-30T09:07:32.366Z,1012.2
2016-04-30T09:08:32.385Z,1012.14
2016-04-30T09:09:32.388Z,1012.19
2016-04-30T09:10:32.390Z,1012.19
2016-04-30T09:11:32.407Z,1012.19
2016-04-30T09:12:32.410Z,1012.21
2016-04-30T09:13:32.413Z,1012.23
2016-04-30T09:14:32.416Z,1012.26
2016-04-30T09:15:32.434Z,1012.28
2016-04-30T09:16:32.437Z,1012.3
2016-04-30T09:17:32.440Z,1012.28
2016-04-30T09:18:32.459Z,1012.29
2016-04-30T09:19:32.461Z,1012.29
2016-04-30T09:20:32.464Z,1012.34
2016-04-30T09:21:32.467Z,1012.3
2016-04-30T09:22:32.485Z,1012.33
2016-04-30T09:23:32.487Z,1012.29
2016-04-30T09:24:32.490Z,1012.28
2016-04-30T09:25:32.509Z,1012.28
2016-04-30T09:26:32.512Z,1012.31
2016-04-30T09:27:32.513Z,1012.32
2016-04-30T09:28:32.516Z,1012.32
2016-04-30T09:29:32.519Z,1012.35
2016-04-30T09:30:32.537Z,1012.34
2016-04-30T09:31:34.336Z,1012.33
2016-04-30T09:32:32.558Z,1012.37
2016-04-30T09:33:32.561Z,1012.35
2016-04-30T09:34:32.720Z,1012.34
2016-04-30T09:35:32.566Z,1012.34
2016-04-30T09:36:32.586Z,1012.34
2016-04-30T09:37:32.588Z,1012.38
2016-04-30T09:38:32.590Z,1012.36
2016-04-30T09:39:32.593Z,1012.37
2016-04-30T09:40:32.611Z,1012.38
2016-04-30T09:41:32.614Z,1012.35
2016-04-30T09:42:32.616Z,1012.34
2016-04-30T09:43:32.619Z,1012.37
2016-04-30T09:44:32.637Z,1012.4
2016-04-30T09:45:32.641Z,1012.4
2016-04-30T09:46:32.643Z,1012.4
2016-04-30T09:47:32.645Z,1012.4
2016-04-30T09:48:32.665Z,1012.42
2016-04-30T09:49:32.667Z,1012.41
2016-04-30T09:50:32.669Z,1012.44
2016-04-30T09:51:32.673Z,1012.44
2016-04-30T09:52:32.690Z,1012.41
2016-04-30T09:53:32.693Z,1012.44
2016-04-30T09:54:32.696Z,1012.4
2016-04-30T09:55:32.714Z,1012.44
2016-04-30T09:56:32.717Z,1012.46
2016-04-30T09:57:32.719Z,1012.46
2016-04-30T09:58:32.722Z,1012.45
2016-04-30T09:59:32.740Z,1012.5
2016-04-30T10:00:32.743Z,1012.48
2016-04-30T10:01:32.745Z,1012.49
2016-04-30T10:02:32.764Z,1012.49
2016-04-30T10:03:32.767Z,1012.47
2016-04-30T10:04:32.770Z,1012.48
2016-04-30T10:05:32.772Z,1012.51
2016-04-30T10:06:32.791Z,1012.49
2016-04-30T10:07:32.793Z,1012.51
2016-04-30T10:08:32.796Z,1012.52
2016-04-30T10:09:32.799Z,1012.49
2016-04-30T10:10:32.801Z,1012.49
2016-04-30T10:11:32.819Z,1012.48
2016-04-30T10:12:32.822Z,1012.45
2016-04-30T10:13:32.824Z,1012.51
2016-04-30T10:14:32.844Z,1012.47
2016-04-30T10:15:32.846Z,1012.49
2016-04-30T10:16:32.849Z,1012.52
2016-04-30T10:17:32.851Z,1012.49
2016-04-30T10:18:32.870Z,1012.56
2016-04-30T10:19:32.873Z,1012.52
2016-04-30T10:20:32.890Z,1012.52
2016-04-30T10:21:32.879Z,1012.51
2016-04-30T10:22:32.881Z,1012.51
2016-04-30T10:23:32.899Z,1012.5
2016-04-30T10:24:32.902Z,1012.46
2016-04-30T10:25:32.904Z,1012.46
2016-04-30T10:26:32.906Z,1012.43
2016-04-30T10:27:32.926Z,1012.45
2016-04-30T10:28:32.928Z,1012.47
2016-04-30T10:29:32.931Z,1012.46
2016-04-30T10:30:32.949Z,1012.52
2016-04-30T10:31:32.951Z,1012.51
2016-04-30T10:32:32.954Z,1012.5
2016-04-30T10:33:32.957Z,1012.53
2016-04-30T10:34:33.381Z,1012.49
2016-04-30T10:35:32.978Z,1012.52
2016-04-30T10:36:32.980Z,1012.54
2016-04-30T10:37:32.984Z,1012.55
2016-04-30T10:38:32.986Z,1012.54
2016-04-30T10:39:33.005Z,1012.6
2016-04-30T10:40:33.008Z,1012.59
2016-04-30T10:41:33.010Z,1012.61
2016-04-30T10:42:33.028Z,1012.61
2016-04-30T10:43:33.031Z,1012.61
2016-04-30T10:44:33.033Z,1012.61
2016-04-30T10:45:33.036Z,1012.63
2016-04-30T10:46:33.055Z,1012.67
2016-04-30T10:47:33.057Z,1012.65
2016-04-30T10:48:33.060Z,1012.62
2016-04-30T10:49:33.063Z,1012.65
2016-04-30T10:50:33.081Z,1012.65
2016-04-30T10:51:33.084Z,1012.61
2016-04-30T10:52:33.086Z,1012.66
2016-04-30T10:53:33.090Z,1012.63
2016-04-30T10:54:33.108Z,1012.61
2016-04-30T10:55:33.110Z,1012.63
2016-04-30T10:56:33.113Z,1012.61
2016-04-30T10:57:33.115Z,1012.65
2016-04-30T10:58:33.118Z,1012.68
2016-04-30T10:59:33.137Z,1012.68
2016-04-30T11:00:33.139Z,1012.71
2016-04-30T11:01:33.142Z,1012.72
2016-04-30T11:02:33.159Z,1012.74
2016-04-30T11:03:33.163Z,1012.78
2016-04-30T11:04:33.494Z,1012.74
2016-04-30T11:05:33.167Z,1012.74
2016-04-30T11:06:33.187Z,1012.74
2016-04-30T11:07:33.189Z,1012.75
2016-04-30T11:08:33.191Z,1012.7
2016-04-30T11:09:33.195Z,1012.69
2016-04-30T11:10:33.214Z,1012.66
2016-04-30T11:11:33.216Z,1012.64
2016-04-30T11:12:33.218Z,1012.65
2016-04-30T11:13:33.221Z,1012.7
2016-04-30T11:14:33.230Z,1012.74
2016-04-30T11:15:33.229Z,1012.73
2016-04-30T11:16:33.595Z,1012.72
2016-04-30T11:17:33.234Z,1012.69
2016-04-30T11:18:33.252Z,1012.71
2016-04-30T11:19:33.255Z,1012.72
2016-04-30T11:20:33.274Z,1012.75
2016-04-30T11:21:33.276Z,1012.81
2016-04-30T11:22:33.279Z,1012.79
2016-04-30T11:23:33.281Z,1012.78
2016-04-30T11:24:33.284Z,1012.79
2016-04-30T11:25:33.302Z,1012.77
2016-04-30T11:26:33.304Z,1012.77
2016-04-30T11:27:33.323Z,1012.74
2016-04-30T11:28:33.310Z,1012.72
2016-04-30T11:29:33.312Z,1012.76
2016-04-30T11:30:33.331Z,1012.78
2016-04-30T11:31:33.334Z,1012.77
2016-04-30T11:32:33.336Z,1012.76
2016-04-30T11:33:33.355Z,1012.77
2016-04-30T11:34:33.717Z,1012.78
2016-04-30T11:35:33.361Z,1012.81
2016-04-30T11:36:33.364Z,1012.82
2016-04-30T11:37:33.381Z,1012.81
2016-04-30T11:38:33.383Z,1012.84
2016-04-30T11:39:33.386Z,1012.84
2016-04-30T11:40:33.405Z,1012.79
2016-04-30T11:41:33.407Z,1012.78
2016-04-30T11:42:33.411Z,1012.81
2016-04-30T11:43:33.413Z,1012.83
2016-04-30T11:44:33.416Z,1012.87
2016-04-30T11:45:33.435Z,1012.86
2016-04-30T11:46:33.438Z,1012.89
2016-04-30T11:47:33.440Z,1012.86
2016-04-30T11:48:33.457Z,1012.82
2016-04-30T11:49:33.460Z,1012.82
2016-04-30T11:50:33.463Z,1012.83
2016-04-30T11:51:33.466Z,1012.86
2016-04-30T11:52:33.468Z,1012.85
2016-04-30T11:53:33.487Z,1012.87
2016-04-30T11:54:33.489Z,1012.84
2016-04-30T11:55:33.492Z,1012.82
2016-04-30T11:56:33.495Z,1012.83
2016-04-30T11:57:33.513Z,1012.84
2016-04-30T11:58:33.515Z,1012.89
2016-04-30T11:59:33.518Z,1012.88
2016-04-30T12:00:33.537Z,1012.87
2016-04-30T12:01:33.540Z,1012.89
2016-04-30T12:02:33.543Z,1012.84
2016-04-30T12:03:33.544Z,1012.84
2016-04-30T12:04:33.563Z,1012.83
2016-04-30T12:05:33.567Z,1012.88
2016-04-30T12:06:33.569Z,1012.86
2016-04-30T12:07:33.572Z,1012.89
2016-04-30T12:08:33.590Z,1012.91
2016-04-30T12:09:33.592Z,1012.88